Sandhilianwali Weather



Sandhilianwali's Current Weather

Temprature 42.465o clear sky

clear sky

Rain: 0 %

Min Temprature42.465o
Max Temprature42.465o
Humidity8
Wind Speed3.43 m/h
Sun Rise05:56:16
Sun Set18:13:45
Current Time: 18-Sep-2019 16:37:05
Lat/Lon: 30.63, 72.36




Sandhilianwali's Geo Location



Sandhilianwali's Weather Forecast

Time Overall Temp Min Temp Max Temp Humidity Wind Speed Rain
18-Sep-2019 (Wed)
17:00:00 clear sky 41.620 41.620 42.465 8 3.43 m/h 0 %
20:00:00 clear sky 32.310 32.310 32.944 17 2.05 m/h 0 %
23:00:00 clear sky 30.890 30.890 31.315 22 4.03 m/h 0 %
19-Sep-2019 (Thu)
02:00:00 clear sky 28.940 28.940 29.150 48 3.79 m/h 0 %
05:00:00 clear sky 26.950 26.950 26.950 54 3.16 m/h 0 %
08:00:00 clear sky 33.150 33.150 33.150 36 3.89 m/h 0 %
11:00:00 clear sky 42.150 42.150 42.150 15 4.96 m/h 0 %
14:00:00 clear sky 44.050 44.050 44.050 11 4.14 m/h 0 %
17:00:00 clear sky 42.650 42.650 42.650 11 3.3 m/h 0 %
20:00:00 clear sky 34.470 34.470 34.470 28 5.32 m/h 0 %
23:00:00 clear sky 31.838 31.838 31.838 40 4.51 m/h 0 %
20-Sep-2019 (Fri)
02:00:00 clear sky 30.256 30.256 30.256 47 4.54 m/h 0 %
05:00:00 clear sky 28.953 28.953 28.953 53 3.83 m/h 0 %
08:00:00 clear sky 33.150 33.150 33.150 44 4.79 m/h 0 %
11:00:00 clear sky 39.150 39.150 39.150 28 3.99 m/h 0 %
14:00:00 broken clouds 39.450 39.450 39.450 25 2.22 m/h 0 %
17:00:00 scattered clouds 39.350 39.350 39.350 24 4.84 m/h 0 %
20:00:00 clear sky 31.750 31.750 31.750 40 3.33 m/h 0 %
23:00:00 clear sky 29.750 29.750 29.750 45 1.81 m/h 0 %
21-Sep-2019 (Sat)
02:00:00 clear sky 28.950 28.950 28.950 48 2.7 m/h 0 %
05:00:00 clear sky 28.624 28.624 28.624 52 2.97 m/h 0 %
08:00:00 clear sky 34.150 34.150 34.150 39 3.85 m/h 0 %
11:00:00 clear sky 39.850 39.850 39.850 24 2.45 m/h 0 %
14:00:00 broken clouds 40.950 40.950 40.950 21 2.2 m/h 0 %
17:00:00 light rain 34.250 34.250 34.250 35 1.64 m/h 50 %
20:00:00 clear sky 31.550 31.550 31.550 41 3.52 m/h 0 %
23:00:00 clear sky 29.935 29.935 29.935 47 2.15 m/h 0 %
22-Sep-2019 (Sun)
02:00:00 clear sky 29.250 29.250 29.250 47 1.67 m/h 0 %
05:00:00 clear sky 28.146 28.146 28.146 48 2.79 m/h 0 %
08:00:00 clear sky 33.791 33.791 33.791 38 3.75 m/h 0 %
11:00:00 clear sky 39.803 39.803 39.803 25 2.97 m/h 0 %
14:00:00 clear sky 42.350 42.350 42.350 18 3.53 m/h 0 %
17:00:00 scattered clouds 40.150 40.150 40.150 21 4.18 m/h 0 %
20:00:00 few clouds 33.225 33.225 33.225 33 2.79 m/h 0 %
23:00:00 few clouds 30.682 30.682 30.682 41 2.97 m/h 0 %
23-Sep-2019 (Mon)
02:00:00 clear sky 29.803 29.803 29.803 45 2.71 m/h 0 %
05:00:00 clear sky 28.877 28.877 28.877 48 2.55 m/h 0 %
08:00:00 clear sky 34.044 34.044 34.044 37 3.85 m/h 0 %
11:00:00 clear sky 39.777 39.777 39.777 26 3.63 m/h 0 %
14:00:00 broken clouds 40.304 40.304 40.304 24 2.67 m/h 0 %

Famous Cities (61)